createdAt,value
2023-05-23T00:01:49.836Z,97809.56
2023-05-23T00:04:19.096Z,97818.56
2023-05-23T00:06:50.651Z,97819.53
2023-05-23T00:09:19.833Z,97809.78
2023-05-23T00:11:46.766Z,97819.13
2023-05-23T00:14:17.144Z,97806.59
2023-05-23T00:16:45.273Z,97806.56
2023-05-23T00:19:15.196Z,97804.47
2023-05-23T00:21:48.377Z,97806.66
2023-05-23T00:24:18.921Z,97806.31
2023-05-23T00:26:46.449Z,97813.28
2023-05-23T00:29:16.977Z,97808.78
2023-05-23T00:31:46.907Z,97810.66
2023-05-23T00:34:15.099Z,97808.72
2023-05-23T00:36:43.759Z,97811.34
2023-05-23T00:39:19.245Z,97803.19
2023-05-23T00:41:52.301Z,97805.47
2023-05-23T00:44:20.569Z,97804.13
2023-05-23T00:46:51.578Z,97804.34
2023-05-23T00:49:20.430Z,97798.53
2023-05-23T00:51:49.777Z,97797.38
2023-05-23T00:54:20.155Z,97795.12
2023-05-23T00:56:48.431Z,97797.75
2023-05-23T00:59:16.671Z,97794.06
2023-05-23T01:01:46.914Z,97790.72
2023-05-23T01:04:17.058Z,97787.62
2023-05-23T01:06:47.276Z,97788.97
2023-05-23T01:09:16.102Z,97784.56
2023-05-23T01:11:54.600Z,97791.63
2023-05-23T01:14:26.961Z,97788.19
2023-05-23T01:16:58.470Z,97788.56
2023-05-23T01:19:38.463Z,97784.41
2023-05-23T01:22:13.338Z,97782.37
2023-05-23T01:24:56.141Z,97782.53
2023-05-23T01:27:33.715Z,97779.22
2023-05-23T01:30:02.314Z,97777.09
2023-05-23T01:32:29.356Z,97785.16
2023-05-23T01:34:56.939Z,97780.75
2023-05-23T01:37:23.804Z,97781.06
2023-05-23T01:39:50.990Z,97774.75
2023-05-23T01:42:18.141Z,97774.66
2023-05-23T01:44:45.690Z,97776.16
2023-05-23T01:47:13.467Z,97772.97
2023-05-23T01:49:41.379Z,97776.84
2023-05-23T01:52:12.249Z,97773.75
2023-05-23T01:54:42.676Z,97764.25
2023-05-23T01:57:10.944Z,97770.19
2023-05-23T01:59:38.741Z,97758.47
2023-05-23T02:02:06.189Z,97767.41
2023-05-23T02:04:33.154Z,97766.69
2023-05-23T02:07:00.024Z,97758.66
2023-05-23T02:09:26.889Z,97766.38
2023-05-23T02:11:54.426Z,97770.97
2023-05-23T02:14:21.670Z,97763.88
2023-05-23T02:16:48.601Z,97763.34
2023-05-23T02:19:15.563Z,97763.19
2023-05-23T02:21:42.502Z,97759.47
2023-05-23T02:24:09.370Z,97759.66
2023-05-23T02:26:36.235Z,97764.00
2023-05-23T02:29:09.086Z,97762.09
2023-05-23T02:31:36.734Z,97764.59
2023-05-23T02:34:03.668Z,97765.41
2023-05-23T02:36:33.543Z,97755.06
2023-05-23T02:39:00.456Z,97764.12
2023-05-23T02:41:27.314Z,97761.69
2023-05-23T02:43:54.994Z,97767.19
2023-05-23T02:46:21.964Z,97767.97
2023-05-23T02:48:48.880Z,97768.50
2023-05-23T02:51:15.930Z,97767.16
2023-05-23T02:53:42.850Z,97767.03
2023-05-23T02:56:09.928Z,97759.19
2023-05-23T02:58:37.162Z,97755.19
2023-05-23T03:01:06.358Z,97751.81
2023-05-23T03:03:34.981Z,97752.72
2023-05-23T03:06:03.670Z,97748.28
2023-05-23T03:08:30.823Z,97751.16
2023-05-23T03:10:57.695Z,97756.03
2023-05-23T03:13:24.561Z,97750.31
2023-05-23T03:15:51.662Z,97750.53
2023-05-23T03:18:18.619Z,97743.28
2023-05-23T03:20:45.595Z,97742.81
2023-05-23T03:23:12.456Z,97743.25
2023-05-23T03:25:39.578Z,97746.38
2023-05-23T03:28:06.630Z,97750.84
2023-05-23T03:30:33.501Z,97746.78
2023-05-23T03:33:00.476Z,97750.94
2023-05-23T03:35:27.356Z,97747.31
2023-05-23T03:37:54.247Z,97747.66
2023-05-23T03:40:22.285Z,97743.03
2023-05-23T03:42:49.994Z,97740.91
2023-05-23T03:45:18.431Z,97741.31
2023-05-23T03:47:45.507Z,97734.50
2023-05-23T03:50:12.423Z,97737.41
2023-05-23T03:52:39.354Z,97733.00
2023-05-23T03:55:06.911Z,97739.75
2023-05-23T03:57:33.774Z,97742.22
2023-05-23T04:00:06.313Z,97739.34
2023-05-23T04:02:33.203Z,97746.34
2023-05-23T04:05:00.850Z,97750.88
2023-05-23T04:07:27.762Z,97745.37
2023-05-23T04:09:54.654Z,97742.56
2023-05-23T04:12:22.335Z,97742.12
2023-05-23T04:14:50.356Z,97750.28
2023-05-23T04:17:17.292Z,97747.69
2023-05-23T04:19:44.754Z,97739.41
2023-05-23T04:22:11.667Z,97744.66
2023-05-23T04:24:38.616Z,97740.59
2023-05-23T04:27:05.975Z,97751.22
2023-05-23T04:29:33.469Z,97744.72
2023-05-23T04:32:01.096Z,97748.47
2023-05-23T04:34:27.999Z,97745.28
2023-05-23T04:36:55.001Z,97741.47
2023-05-23T04:39:21.859Z,97747.56
2023-05-23T04:41:50.254Z,97741.03
2023-05-23T04:44:17.168Z,97741.72
2023-05-23T04:46:45.782Z,97745.16
2023-05-23T04:49:13.239Z,97740.19
2023-05-23T04:51:40.114Z,97744.00
2023-05-23T04:54:07.114Z,97744.81
2023-05-23T04:56:33.970Z,97747.69
2023-05-23T04:59:00.843Z,97739.97
2023-05-23T05:01:28.297Z,97747.00
2023-05-23T05:03:55.283Z,97746.03
2023-05-23T05:06:23.394Z,97748.88
2023-05-23T05:08:50.277Z,97754.47
2023-05-23T05:11:17.199Z,97750.72
2023-05-23T05:13:44.114Z,97757.59
2023-05-23T05:16:11.148Z,97749.88
2023-05-23T05:18:39.265Z,97757.75
2023-05-23T05:21:06.659Z,97754.78
2023-05-23T05:23:34.406Z,97754.28
2023-05-23T05:26:01.337Z,97751.34
2023-05-23T05:28:28.229Z,97757.22
2023-05-23T05:30:55.243Z,97760.91
2023-05-23T05:33:25.442Z,97754.06
2023-05-23T05:35:52.536Z,97755.13
2023-05-23T05:38:19.729Z,97758.50
2023-05-23T05:40:46.726Z,97755.03
2023-05-23T05:43:13.708Z,97749.47
2023-05-23T05:45:40.999Z,97748.28
2023-05-23T05:48:08.488Z,97755.16
2023-05-23T05:50:35.379Z,97756.16
2023-05-23T05:53:02.282Z,97751.38
2023-05-23T05:55:29.270Z,97760.63
2023-05-23T05:57:56.220Z,97750.44
2023-05-23T06:00:30.500Z,97756.12
2023-05-23T06:03:02.776Z,97747.16
2023-05-23T06:05:30.177Z,97738.41
2023-05-23T06:07:57.048Z,97745.72
2023-05-23T06:10:24.823Z,97747.28
2023-05-23T06:12:51.689Z,97752.28
2023-05-23T06:15:19.238Z,97747.28
2023-05-23T06:17:46.149Z,97754.00
2023-05-23T06:20:13.309Z,97743.38
2023-05-23T06:22:40.327Z,97747.69
2023-05-23T06:25:07.868Z,97750.31
2023-05-23T06:27:34.790Z,97744.84
2023-05-23T06:30:01.638Z,97741.94
2023-05-23T06:32:28.540Z,97749.38
2023-05-23T06:34:55.495Z,97749.97
2023-05-23T06:37:22.407Z,97745.00
2023-05-23T06:39:49.769Z,97745.44
2023-05-23T06:42:16.755Z,97739.78
2023-05-23T06:44:43.619Z,97743.66
2023-05-23T06:47:10.564Z,97745.00
2023-05-23T06:49:37.478Z,97737.37
2023-05-23T06:52:04.502Z,97745.59
2023-05-23T06:54:31.445Z,97742.41
2023-05-23T06:57:01.108Z,97747.44
2023-05-23T06:59:29.044Z,97746.63
2023-05-23T07:01:56.022Z,97744.75
2023-05-23T07:04:22.890Z,97746.38
2023-05-23T07:06:50.462Z,97744.03
2023-05-23T07:09:17.615Z,97736.09
2023-05-23T07:11:46.977Z,97732.69
2023-05-23T07:14:13.969Z,97730.75
2023-05-23T07:16:40.983Z,97729.00
2023-05-23T07:19:08.059Z,97734.81
2023-05-23T07:21:34.931Z,97730.97
2023-05-23T07:24:02.268Z,97728.22
2023-05-23T07:26:29.195Z,97733.94
2023-05-23T07:28:56.123Z,97734.53
2023-05-23T07:31:23.279Z,97730.13
2023-05-23T07:33:50.269Z,97728.34
2023-05-23T07:36:22.656Z,97730.63
2023-05-23T07:38:49.654Z,97726.25
2023-05-23T07:41:16.581Z,97724.22
2023-05-23T07:43:43.461Z,97736.22
2023-05-23T07:46:10.341Z,97730.78
2023-05-23T07:48:37.308Z,97734.53
2023-05-23T07:51:04.400Z,97728.09
2023-05-23T07:53:31.330Z,97730.16
2023-05-23T07:55:58.223Z,97728.28
2023-05-23T07:58:27.169Z,97736.06
2023-05-23T08:00:54.272Z,97729.94
2023-05-23T08:03:21.405Z,97733.53
2023-05-23T08:05:48.277Z,97724.00
2023-05-23T08:08:15.134Z,97727.47
2023-05-23T08:10:42.311Z,97729.19
2023-05-23T08:13:10.357Z,97732.19
2023-05-23T08:15:37.427Z,97738.09
2023-05-23T08:18:05.395Z,97735.44
2023-05-23T08:20:32.444Z,97733.06
2023-05-23T08:23:02.655Z,97726.62
2023-05-23T08:25:33.285Z,97731.56
2023-05-23T08:28:01.421Z,97726.22
2023-05-23T08:30:29.191Z,97736.50
2023-05-23T08:32:57.219Z,97726.00
2023-05-23T08:35:24.553Z,97728.72
2023-05-23T08:37:52.561Z,97738.09
2023-05-23T08:40:24.195Z,97737.84
2023-05-23T08:42:51.628Z,97737.22
2023-05-23T08:45:18.940Z,97732.63
2023-05-23T08:47:47.016Z,97734.28
2023-05-23T08:50:16.729Z,97742.66
2023-05-23T08:52:51.014Z,97740.72
2023-05-23T08:55:18.010Z,97731.75
2023-05-23T08:57:45.816Z,97734.03
2023-05-23T09:00:15.232Z,97734.19
2023-05-23T09:02:44.288Z,97740.56
2023-05-23T09:05:11.417Z,97736.28
2023-05-23T09:07:38.972Z,97747.06
2023-05-23T09:10:07.854Z,97746.16
2023-05-23T09:12:37.355Z,97736.19
2023-05-23T09:15:10.975Z,97740.09
2023-05-23T09:17:40.711Z,97741.62
2023-05-23T09:20:14.860Z,97734.72
2023-05-23T09:22:46.453Z,97737.59
2023-05-23T09:25:13.433Z,97737.81
2023-05-23T09:27:40.534Z,97735.38
2023-05-23T09:30:12.351Z,97731.31
2023-05-23T09:32:39.757Z,97735.84
2023-05-23T09:35:08.074Z,97735.88
2023-05-23T09:37:36.834Z,97741.03
2023-05-23T09:40:11.201Z,97738.19
2023-05-23T09:42:46.139Z,97732.22
2023-05-23T09:45:17.367Z,97732.28
2023-05-23T09:47:53.971Z,97732.03
2023-05-23T09:50:21.538Z,97736.97
2023-05-23T09:52:48.684Z,97738.97
2023-05-23T09:55:15.749Z,97735.56
2023-05-23T09:57:44.109Z,97729.09
2023-05-23T10:00:15.290Z,97731.59
2023-05-23T10:03:00.587Z,97726.78
2023-05-23T10:05:31.062Z,97730.34
2023-05-23T10:08:01.445Z,97723.22
2023-05-23T10:10:32.045Z,97720.84
2023-05-23T10:13:01.969Z,97721.34
2023-05-23T10:15:31.767Z,97718.88
2023-05-23T10:18:18.766Z,97720.53
2023-05-23T10:20:48.510Z,97718.06
2023-05-23T10:23:16.252Z,97716.63
2023-05-23T10:25:44.692Z,97711.16
2023-05-23T10:28:12.620Z,97711.94
2023-05-23T10:30:40.033Z,97708.22
2023-05-23T10:33:09.058Z,97714.69
2023-05-23T10:35:38.895Z,97709.28
2023-05-23T10:38:19.021Z,97702.28
2023-05-23T10:41:06.016Z,97701.16
2023-05-23T10:43:48.128Z,97700.81
2023-05-23T10:46:15.980Z,97689.22
2023-05-23T10:48:44.360Z,97692.09
2023-05-23T10:51:12.747Z,97688.88
2023-05-23T10:53:41.949Z,97698.41
2023-05-23T10:56:10.647Z,97698.13
2023-05-23T10:58:39.826Z,97681.94
2023-05-23T11:01:09.097Z,97700.78
2023-05-23T11:03:46.838Z,97685.91
2023-05-23T11:06:38.932Z,97683.16
2023-05-23T11:09:07.937Z,97679.62
2023-05-23T11:11:54.928Z,97683.25
2023-05-23T11:14:40.958Z,97670.25
2023-05-23T11:17:13.780Z,97673.63
2023-05-23T11:19:41.754Z,97666.50
2023-05-23T11:22:09.875Z,97669.19
2023-05-23T11:24:53.013Z,97668.75
2023-05-23T11:27:32.298Z,97665.66
2023-05-23T11:30:00.728Z,97655.06
2023-05-23T11:32:31.600Z,97649.38
2023-05-23T11:35:02.747Z,97663.59
2023-05-23T11:37:30.606Z,97642.78
2023-05-23T11:39:58.128Z,97649.12
2023-05-23T11:42:25.219Z,97642.62
2023-05-23T11:44:53.026Z,97649.19
2023-05-23T11:47:20.269Z,97650.44
2023-05-23T11:49:47.552Z,97652.38
2023-05-23T11:52:15.066Z,97645.63
2023-05-23T11:54:44.864Z,97629.81
2023-05-23T11:57:14.087Z,97635.97
2023-05-23T11:59:41.056Z,97631.44
2023-05-23T12:02:08.626Z,97630.53
2023-05-23T12:04:37.370Z,97634.94
2023-05-23T12:07:07.846Z,97632.41
2023-05-23T12:09:44.649Z,97632.00
2023-05-23T12:12:12.938Z,97643.38
2023-05-23T12:14:44.926Z,97626.22
2023-05-23T12:17:13.201Z,97629.69
2023-05-23T12:19:41.102Z,97627.47
2023-05-23T12:22:08.576Z,97630.94
2023-05-23T12:24:35.593Z,97625.34
2023-05-23T12:27:03.790Z,97626.25
2023-05-23T12:29:34.779Z,97619.00
2023-05-23T12:32:03.503Z,97616.09
2023-05-23T12:34:30.428Z,97615.81
2023-05-23T12:37:10.295Z,97617.00
2023-05-23T12:39:45.549Z,97620.97
2023-05-23T12:42:12.750Z,97612.59
2023-05-23T12:44:41.885Z,97609.06
2023-05-23T12:47:08.813Z,97605.41
2023-05-23T12:49:37.324Z,97605.81
2023-05-23T12:52:04.237Z,97605.19
2023-05-23T12:54:31.200Z,97600.37
2023-05-23T12:56:58.105Z,97588.28
2023-05-23T12:59:27.334Z,97594.53
2023-05-23T13:01:55.878Z,97585.37
2023-05-23T13:04:22.855Z,97584.81
2023-05-23T13:06:49.816Z,97573.25
2023-05-23T13:09:18.077Z,97571.28
2023-05-23T13:11:45.063Z,97563.94
2023-05-23T13:14:13.810Z,97559.78
2023-05-23T13:16:41.028Z,97558.62
2023-05-23T13:19:07.968Z,97555.84
2023-05-23T13:21:34.907Z,97546.78
2023-05-23T13:24:01.803Z,97547.94
2023-05-23T13:26:28.996Z,97545.06
2023-05-23T13:28:55.935Z,97546.75
2023-05-23T13:31:22.888Z,97548.41
2023-05-23T13:33:49.822Z,97550.44
2023-05-23T13:36:16.752Z,97547.28
2023-05-23T13:38:43.675Z,97554.97
2023-05-23T13:41:10.684Z,97553.87
2023-05-23T13:43:37.655Z,97554.53
2023-05-23T13:46:04.652Z,97553.31
2023-05-23T13:48:31.747Z,97561.50
2023-05-23T13:50:59.098Z,97554.09
2023-05-23T13:53:26.208Z,97561.09
2023-05-23T13:55:53.417Z,97556.09
2023-05-23T13:58:20.713Z,97539.31
2023-05-23T14:00:47.800Z,97560.03
2023-05-23T14:03:15.884Z,97562.50
2023-05-23T14:05:42.945Z,97561.06
2023-05-23T14:08:11.472Z,97571.91
2023-05-23T14:10:38.475Z,97569.47
2023-05-23T14:13:07.058Z,97557.75
2023-05-23T14:15:34.913Z,97568.41
2023-05-23T14:18:02.252Z,97571.88
2023-05-23T14:20:30.071Z,97576.78
2023-05-23T14:22:57.175Z,97581.94
2023-05-23T14:25:24.067Z,97581.81
2023-05-23T14:27:50.921Z,97577.00
2023-05-23T14:30:17.902Z,97580.22
2023-05-23T14:32:44.889Z,97588.75
2023-05-23T14:35:12.199Z,97589.12
2023-05-23T14:37:39.456Z,97588.09
2023-05-23T14:40:10.204Z,97576.22
2023-05-23T14:42:37.256Z,97581.53
2023-05-23T14:45:05.045Z,97561.97
2023-05-23T14:47:32.741Z,97552.63
2023-05-23T14:49:59.668Z,97557.59
2023-05-23T14:52:26.957Z,97554.06
2023-05-23T14:54:53.902Z,97548.78
2023-05-23T14:57:20.876Z,97539.16
2023-05-23T14:59:47.909Z,97537.66
2023-05-23T15:02:14.800Z,97536.84
2023-05-23T15:04:41.995Z,97538.94
2023-05-23T15:07:09.089Z,97537.91
2023-05-23T15:09:36.624Z,97529.69
2023-05-23T15:12:05.422Z,97528.69
2023-05-23T15:14:32.381Z,97522.09
2023-05-23T15:17:07.814Z,97524.56
2023-05-23T15:19:36.485Z,97515.31
2023-05-23T15:22:05.379Z,97515.97
2023-05-23T15:24:32.446Z,97519.06
2023-05-23T15:27:11.671Z,97519.25
2023-05-23T15:29:47.011Z,97520.69
2023-05-23T15:32:14.169Z,97506.34
2023-05-23T15:34:41.143Z,97508.75
2023-05-23T15:37:08.066Z,97512.28
2023-05-23T15:39:35.136Z,97518.63
2023-05-23T15:42:02.198Z,97526.22
2023-05-23T15:44:29.139Z,97536.44
2023-05-23T15:46:56.235Z,97524.53
2023-05-23T15:49:26.384Z,97524.56
2023-05-23T15:51:55.442Z,97528.28
2023-05-23T15:54:22.728Z,97515.87
2023-05-23T15:56:49.655Z,97525.94
2023-05-23T15:59:16.531Z,97527.22
2023-05-23T16:01:43.515Z,97532.22
2023-05-23T16:04:10.507Z,97543.66
2023-05-23T16:06:38.453Z,97550.34
2023-05-23T16:09:06.425Z,97549.97
2023-05-23T16:11:33.331Z,97557.69
2023-05-23T16:14:00.225Z,97564.06
2023-05-23T16:16:27.162Z,97563.13
2023-05-23T16:18:54.148Z,97558.53
2023-05-23T16:21:21.159Z,97567.59
2023-05-23T16:23:51.136Z,97562.16
2023-05-23T16:26:19.120Z,97566.03
2023-05-23T16:28:46.060Z,97556.97
2023-05-23T16:31:14.698Z,97564.25
2023-05-23T16:33:41.663Z,97572.28
2023-05-23T16:36:08.629Z,97577.53
2023-05-23T16:38:35.596Z,97580.09
2023-05-23T16:41:02.506Z,97576.63
2023-05-23T16:43:29.424Z,97588.41
2023-05-23T16:45:56.405Z,97587.06
2023-05-23T16:48:23.351Z,97588.28
2023-05-23T16:50:50.247Z,97592.41
2023-05-23T16:53:17.148Z,97592.84
2023-05-23T16:55:44.245Z,97598.41
2023-05-23T16:58:12.391Z,97617.31
2023-05-23T17:00:39.792Z,97630.50
2023-05-23T17:03:07.027Z,97647.53
2023-05-23T17:05:34.601Z,97646.69
2023-05-23T17:08:02.081Z,97667.53
2023-05-23T17:10:29.124Z,97666.31
2023-05-23T17:12:56.092Z,97693.91
2023-05-23T17:15:23.041Z,97691.81
2023-05-23T17:17:50.014Z,97695.25
2023-05-23T17:20:17.032Z,97684.28
2023-05-23T17:22:43.969Z,97682.25
2023-05-23T17:25:11.088Z,97697.00
2023-05-23T17:27:37.954Z,97698.50
2023-05-23T17:30:05.741Z,97694.53
2023-05-23T17:32:32.696Z,97696.97
2023-05-23T17:34:59.782Z,97697.28
2023-05-23T17:37:26.698Z,97683.31
2023-05-23T17:39:56.773Z,97692.44
2023-05-23T17:42:25.089Z,97698.81
2023-05-23T17:44:51.960Z,97702.19
2023-05-23T17:47:19.053Z,97687.12
2023-05-23T17:49:45.970Z,97704.84
2023-05-23T17:52:15.102Z,97695.84
2023-05-23T17:54:42.391Z,97699.59
2023-05-23T17:57:09.376Z,97686.19
2023-05-23T17:59:36.530Z,97707.84
2023-05-23T18:02:04.936Z,97694.59
2023-05-23T18:04:31.983Z,97696.97
2023-05-23T18:06:58.997Z,97692.41
2023-05-23T18:09:25.877Z,97689.38
2023-05-23T18:11:52.931Z,97693.56
2023-05-23T18:14:19.909Z,97692.81
2023-05-23T18:16:46.846Z,97689.38
2023-05-23T18:19:13.894Z,97689.16
2023-05-23T18:21:41.005Z,97683.97
2023-05-23T18:24:09.159Z,97682.75
2023-05-23T18:26:40.339Z,97675.59
2023-05-23T18:29:07.251Z,97681.91
2023-05-23T18:31:34.110Z,97682.88
2023-05-23T18:34:01.263Z,97684.81
2023-05-23T18:36:28.181Z,97689.50
2023-05-23T18:38:55.113Z,97690.84
2023-05-23T18:41:22.566Z,97690.75
2023-05-23T18:43:50.120Z,97688.50
2023-05-23T18:46:17.365Z,97698.03
2023-05-23T18:48:44.338Z,97698.44
2023-05-23T18:51:12.511Z,97705.50
2023-05-23T18:53:42.206Z,97708.00
2023-05-23T18:56:09.572Z,97719.09
2023-05-23T18:58:36.459Z,97727.78
2023-05-23T19:01:04.084Z,97738.03
2023-05-23T19:03:32.235Z,97730.41
2023-05-23T19:06:02.300Z,97738.31
2023-05-23T19:08:32.903Z,97737.31
2023-05-23T19:11:00.508Z,97733.84
2023-05-23T19:13:27.765Z,97731.78
2023-05-23T19:15:54.719Z,97736.84
2023-05-23T19:18:21.634Z,97722.63
2023-05-23T19:20:51.671Z,97722.16
2023-05-23T19:23:21.097Z,97724.56
2023-05-23T19:25:48.060Z,97726.09
2023-05-23T19:28:17.750Z,97732.59
2023-05-23T19:30:44.866Z,97731.88
2023-05-23T19:33:11.968Z,97718.91
2023-05-23T19:35:39.085Z,97718.06
2023-05-23T19:38:05.984Z,97717.38
2023-05-23T19:40:32.904Z,97719.09
2023-05-23T19:42:59.821Z,97722.56
2023-05-23T19:45:27.063Z,97730.56
2023-05-23T19:47:54.026Z,97732.09
2023-05-23T19:50:22.221Z,97732.31
2023-05-23T19:52:49.118Z,97750.78
2023-05-23T19:55:16.131Z,97750.38
2023-05-23T19:57:43.035Z,97760.97
2023-05-23T20:00:10.640Z,97766.41
2023-05-23T20:02:37.655Z,97773.84
2023-05-23T20:05:05.666Z,97768.31
2023-05-23T20:07:32.544Z,97759.75
2023-05-23T20:09:59.501Z,97765.41
2023-05-23T20:12:26.876Z,97769.00
2023-05-23T20:14:53.801Z,97774.25
2023-05-23T20:17:20.838Z,97766.56
2023-05-23T20:19:47.832Z,97763.28
2023-05-23T20:22:14.841Z,97766.13
2023-05-23T20:24:41.739Z,97771.50
2023-05-23T20:27:08.627Z,97774.47
2023-05-23T20:29:35.579Z,97776.53
2023-05-23T20:32:02.477Z,97773.16
2023-05-23T20:34:29.451Z,97775.50
2023-05-23T20:36:57.672Z,97772.69
2023-05-23T20:39:24.592Z,97779.12
2023-05-23T20:41:51.512Z,97778.16
2023-05-23T20:44:18.538Z,97780.44
2023-05-23T20:46:45.671Z,97786.81
2023-05-23T20:49:12.636Z,97790.09
2023-05-23T20:51:39.532Z,97792.56
2023-05-23T20:54:07.255Z,97802.31
2023-05-23T20:56:34.222Z,97807.09
2023-05-23T20:59:01.228Z,97802.34
2023-05-23T21:01:28.730Z,97813.69
2023-05-23T21:03:56.137Z,97819.06
2023-05-23T21:06:23.217Z,97821.53
2023-05-23T21:08:50.116Z,97821.66
2023-05-23T21:11:17.021Z,97826.41
2023-05-23T21:13:44.000Z,97823.47
2023-05-23T21:16:14.645Z,97826.09
2023-05-23T21:18:41.817Z,97827.06
2023-05-23T21:21:08.764Z,97821.50
2023-05-23T21:23:35.671Z,97817.25
2023-05-23T21:26:02.932Z,97825.62
2023-05-23T21:28:29.845Z,97826.66
2023-05-23T21:30:57.210Z,97821.59
2023-05-23T21:33:24.189Z,97813.66
2023-05-23T21:35:51.422Z,97829.53
2023-05-23T21:38:18.314Z,97827.84
2023-05-23T21:40:45.282Z,97825.94
2023-05-23T21:43:12.202Z,97827.44
2023-05-23T21:45:39.099Z,97822.69
2023-05-23T21:48:06.195Z,97827.22
2023-05-23T21:50:33.135Z,97825.66
2023-05-23T21:53:00.037Z,97826.00
2023-05-23T21:55:27.464Z,97820.75
2023-05-23T21:57:54.368Z,97829.72
2023-05-23T22:00:22.844Z,97835.41
2023-05-23T22:02:49.883Z,97836.72
2023-05-23T22:05:17.306Z,97834.66
2023-05-23T22:07:44.192Z,97834.03
2023-05-23T22:10:11.456Z,97845.94
2023-05-23T22:12:38.921Z,97839.62
2023-05-23T22:15:07.445Z,97839.66
2023-05-23T22:17:34.788Z,97837.37
2023-05-23T22:20:02.494Z,97841.47
2023-05-23T22:22:29.382Z,97843.31
2023-05-23T22:24:56.416Z,97853.38
2023-05-23T22:27:23.391Z,97852.19
2023-05-23T22:29:50.385Z,97854.16
2023-05-23T22:32:17.299Z,97852.16
2023-05-23T22:34:45.615Z,97856.78
2023-05-23T22:37:12.540Z,97847.91
2023-05-23T22:39:39.396Z,97847.09
2023-05-23T22:42:06.521Z,97851.22
2023-05-23T22:44:33.549Z,97854.13
2023-05-23T22:47:00.484Z,97847.72
2023-05-23T22:49:30.217Z,97840.00
2023-05-23T22:51:57.924Z,97849.41
2023-05-23T22:54:24.878Z,97845.91
2023-05-23T22:56:51.851Z,97855.31
2023-05-23T22:59:18.745Z,97854.69
2023-05-23T23:01:46.569Z,97864.22
2023-05-23T23:04:13.470Z,97860.09
2023-05-23T23:06:43.424Z,97861.00
2023-05-23T23:09:10.409Z,97862.84
2023-05-23T23:11:37.306Z,97862.06
2023-05-23T23:14:04.185Z,97867.53
2023-05-23T23:16:31.166Z,97861.56
2023-05-23T23:18:58.955Z,97861.44
2023-05-23T23:21:26.007Z,97858.66
2023-05-23T23:23:52.894Z,97858.50
2023-05-23T23:26:19.849Z,97863.53
2023-05-23T23:28:46.761Z,97857.78
2023-05-23T23:31:13.722Z,97855.62
2023-05-23T23:33:40.840Z,97844.63
2023-05-23T23:36:07.931Z,97853.91
2023-05-23T23:38:34.820Z,97858.25
2023-05-23T23:41:01.686Z,97855.19
2023-05-23T23:43:28.612Z,97851.13
2023-05-23T23:45:55.576Z,97859.09
2023-05-23T23:48:22.527Z,97854.59
2023-05-23T23:50:49.454Z,97856.56
2023-05-23T23:53:17.021Z,97861.28
2023-05-23T23:55:43.890Z,97857.44
2023-05-23T23:58:10.758Z,97859.13
